Kezdőlap
METAR-TAF:

METAR-TAF

Repülőterek :

Deming, Új-Mexikó, Amerikai Egyesült Államok

földrajzi szélesség: 32-15-44N, földrajzi hosszúság: 107-43-14W, magasság: 1315 m

Jelenlegi meteorológiai megfigyelések

A jelentés 29 perccel ezelõtt készült, 10:53 UTC
Északkeleti szél 14 kt széllökések: 25 kt
Hőmérséklet 23°C
Páratartalom 53%
Légköri nyomás 1024 hPa
Látótávolság: 16.1 km
Derült ég

METAR: KDMN 191053Z AUTO 05014G25KT 10SM CLR 23/13 A3025 RMK AO2 SLP155 T02280133

Idő: 05:22 (11:22 UTC)

Előrejelzés

A jelentés 5 órával és 59 perccel ezelõtt készült, 05:23 UTC
Az előrejelzés 19-én 06 óra UTC és 20-én 06 óra UTC között érvényes
Keleti szél 6 kt
Látótávolság: 10 km
Kevés felhő 10000 lábon

TAF: KDMN 190523Z 1906/2006 08006KT P6SM FEW100

Meteorológiai megfigyelések és előrejelzések több, mint 4000 repülőtéren (METAR és TAF jelentéseket).

A térképen piros és sárga pontok jelzik az elérhető meteorológiai állomásokat.

Mozgassa az egeret a pont fölött, hogy megjelenjen az állomás neve.

Azután kattintson az időjárási megfigyelések és előrejelzések megtekintéséhez.

A térkép megváltoztatása: kattintson a fekete keresztel jelölt zöld gombra ráközelítéshez, a vonallal jelölt zöld gombra távolításhoz, vagy a zöld nyilakra a szomszédos térképek eléréséhez.


METAR-TAF: